createdAt,value
2017-09-27T00:00:28.483Z,49.20
2017-09-27T00:02:55.167Z,48.65
2017-09-27T00:05:21.832Z,51.40
2017-09-27T00:07:48.543Z,50.35
2017-09-27T00:10:15.203Z,49.42
2017-09-27T00:12:41.874Z,51.53
2017-09-27T00:15:08.546Z,49.83
2017-09-27T00:17:35.211Z,50.28
2017-09-27T00:20:01.875Z,52.45
2017-09-27T00:22:28.548Z,54.97
2017-09-27T00:24:55.215Z,50.90
2017-09-27T00:27:21.887Z,50.58
2017-09-27T00:29:48.580Z,51.15
2017-09-27T00:32:15.247Z,52.90
2017-09-27T00:34:41.943Z,53.58
2017-09-27T00:37:08.615Z,51.85
2017-09-27T00:39:35.279Z,50.90
2017-09-27T00:42:01.939Z,53.00
2017-09-27T00:44:28.618Z,53.63
2017-09-27T00:46:55.280Z,54.63
2017-09-27T00:49:21.944Z,50.03
2017-09-27T00:51:48.611Z,52.55
2017-09-27T00:54:15.275Z,54.55
2017-09-27T00:56:41.980Z,53.08
2017-09-27T00:59:08.647Z,55.75
2017-09-27T01:01:35.315Z,55.97
2017-09-27T01:04:01.980Z,56.20
2017-09-27T01:06:28.681Z,52.45
2017-09-27T01:08:55.335Z,55.80
2017-09-27T01:11:22.004Z,55.70
2017-09-27T01:13:48.666Z,56.90
2017-09-27T01:16:15.332Z,56.72
2017-09-27T01:18:42.003Z,57.85
2017-09-27T01:21:08.699Z,56.15
2017-09-27T01:23:35.371Z,56.25
2017-09-27T01:26:02.044Z,59.25
2017-09-27T01:28:28.746Z,57.70
2017-09-27T01:30:55.412Z,56.33
2017-09-27T01:33:22.090Z,56.30
2017-09-27T01:35:48.755Z,59.28
2017-09-27T01:38:15.421Z,57.33
2017-09-27T01:40:42.102Z,54.63
2017-09-27T01:43:09.375Z,54.67
2017-09-27T01:45:36.043Z,57.03
2017-09-27T01:48:02.721Z,57.85
2017-09-27T01:50:29.386Z,59.33
2017-09-27T01:52:56.060Z,53.50
2017-09-27T01:55:22.777Z,54.22
2017-09-27T01:57:49.448Z,59.42
2017-09-27T02:00:16.119Z,55.17
2017-09-27T02:02:42.779Z,55.35
2017-09-27T02:05:09.439Z,59.97
2017-09-27T02:07:36.103Z,59.30
2017-09-27T02:10:02.767Z,58.40
2017-09-27T02:12:29.436Z,58.13
2017-09-27T02:14:56.095Z,53.42
2017-09-27T02:17:22.762Z,59.90
2017-09-27T02:19:49.423Z,59.65
2017-09-27T02:22:16.087Z,57.78
2017-09-27T02:24:42.755Z,56.33
2017-09-27T02:27:09.455Z,56.37
2017-09-27T02:29:36.119Z,58.28
2017-09-27T02:32:02.792Z,59.20
2017-09-27T02:34:29.463Z,61.60
2017-09-27T02:36:56.124Z,57.80
2017-09-27T02:39:22.800Z,57.80
2017-09-27T02:41:49.468Z,60.08
2017-09-27T02:44:16.135Z,59.08
2017-09-27T02:46:42.803Z,59.47
2017-09-27T02:49:09.472Z,57.80
2017-09-27T02:51:36.131Z,59.13
2017-09-27T02:54:02.796Z,62.62
2017-09-27T02:56:30.339Z,61.37
2017-09-27T02:58:57.003Z,61.70
2017-09-27T03:01:23.700Z,60.55
2017-09-27T03:03:50.369Z,59.78
2017-09-27T03:06:17.063Z,62.03
2017-09-27T03:08:43.730Z,60.67
2017-09-27T03:11:10.423Z,60.17
2017-09-27T03:13:37.092Z,61.42
2017-09-27T03:16:04.278Z,59.75
2017-09-27T03:18:30.942Z,60.95
2017-09-27T03:20:57.604Z,56.37
2017-09-27T03:23:24.268Z,58.08
2017-09-27T03:25:50.936Z,60.40
2017-09-27T03:28:17.626Z,59.47
2017-09-27T03:30:44.296Z,60.17
2017-09-27T03:33:10.987Z,57.55
2017-09-27T03:35:37.668Z,58.25
2017-09-27T03:38:04.362Z,57.35
2017-09-27T03:40:31.059Z,60.92
2017-09-27T03:42:57.743Z,58.50
2017-09-27T03:45:24.418Z,58.70
2017-09-27T03:47:51.111Z,60.58
2017-09-27T03:50:17.787Z,60.25
2017-09-27T03:52:44.828Z,58.15
2017-09-27T03:55:11.501Z,59.47
2017-09-27T03:57:38.167Z,57.10
2017-09-27T04:00:04.844Z,58.42
2017-09-27T04:02:31.535Z,60.12
2017-09-27T04:04:58.198Z,59.25
2017-09-27T04:07:24.876Z,59.08
2017-09-27T04:09:51.567Z,54.75
2017-09-27T04:12:18.231Z,59.58
2017-09-27T04:14:44.923Z,58.97
2017-09-27T04:17:11.590Z,58.03
2017-09-27T04:19:38.275Z,59.35
2017-09-27T04:22:04.941Z,57.35
2017-09-27T04:24:31.632Z,58.47
2017-09-27T04:26:58.309Z,58.20
2017-09-27T04:29:24.982Z,57.35
2017-09-27T04:31:51.652Z,56.80
2017-09-27T04:34:18.319Z,57.03
2017-09-27T04:36:44.984Z,58.95
2017-09-27T04:39:11.647Z,59.05
2017-09-27T04:41:38.344Z,59.55
2017-09-27T04:44:05.015Z,58.97
2017-09-27T04:46:31.718Z,57.58
2017-09-27T04:48:58.747Z,55.78
2017-09-27T04:51:25.408Z,56.45
2017-09-27T04:53:52.080Z,57.92
2017-09-27T04:56:18.744Z,57.08
2017-09-27T04:58:45.413Z,57.25
2017-09-27T05:01:12.114Z,55.47
2017-09-27T05:03:38.791Z,54.90
2017-09-27T05:06:05.452Z,55.05
2017-09-27T05:08:32.158Z,55.97
2017-09-27T05:10:58.823Z,55.55
2017-09-27T05:13:25.487Z,53.97
2017-09-27T05:15:52.147Z,52.85
2017-09-27T05:18:18.835Z,58.60
2017-09-27T05:20:45.503Z,55.33
2017-09-27T05:23:12.167Z,54.50
2017-09-27T05:25:38.830Z,54.10
2017-09-27T05:28:05.493Z,55.47
2017-09-27T05:30:32.163Z,53.78
2017-09-27T05:32:58.827Z,51.70
2017-09-27T05:35:25.535Z,55.30
2017-09-27T05:37:52.199Z,54.10
2017-09-27T05:40:18.868Z,54.90
2017-09-27T05:42:45.532Z,53.92
2017-09-27T05:45:12.195Z,57.30
2017-09-27T05:47:38.868Z,53.58
2017-09-27T05:50:05.543Z,49.60
2017-09-27T05:52:32.206Z,55.67
2017-09-27T05:54:58.867Z,54.30
2017-09-27T05:57:25.538Z,52.45
2017-09-27T05:59:52.203Z,52.90
2017-09-27T06:02:18.891Z,53.85
2017-09-27T06:04:45.560Z,53.63
2017-09-27T06:07:12.263Z,52.85
2017-09-27T06:09:38.932Z,58.10
2017-09-27T06:12:05.595Z,52.35
2017-09-27T06:14:32.259Z,53.30
2017-09-27T06:16:58.926Z,54.33
2017-09-27T06:19:25.591Z,53.08
2017-09-27T06:21:52.252Z,53.38
2017-09-27T06:24:18.915Z,52.78
2017-09-27T06:26:45.575Z,56.33
2017-09-27T06:29:12.246Z,51.97
2017-09-27T06:31:38.928Z,50.22
2017-09-27T06:34:05.614Z,51.47
2017-09-27T06:36:32.276Z,51.80
2017-09-27T06:38:58.979Z,52.05
2017-09-27T06:41:25.643Z,52.90
2017-09-27T06:43:52.615Z,52.30
2017-09-27T06:46:19.279Z,51.47
2017-09-27T06:48:45.939Z,47.53
2017-09-27T06:51:12.603Z,47.85
2017-09-27T06:53:39.275Z,46.42
2017-09-27T06:56:05.939Z,51.08
2017-09-27T06:58:32.608Z,51.40
2017-09-27T07:00:59.271Z,52.78
2017-09-27T07:03:25.935Z,51.40
2017-09-27T07:05:52.639Z,54.95
2017-09-27T07:08:19.317Z,49.83
2017-09-27T07:10:45.995Z,53.70
2017-09-27T07:13:12.658Z,53.17
2017-09-27T07:15:39.327Z,51.25
2017-09-27T07:18:05.987Z,47.62
2017-09-27T07:20:32.651Z,50.33
2017-09-27T07:22:59.312Z,49.17
2017-09-27T07:25:25.980Z,51.75
2017-09-27T07:27:52.647Z,49.20
2017-09-27T07:30:19.307Z,49.17
2017-09-27T07:32:45.971Z,48.30
2017-09-27T07:35:12.630Z,49.50
2017-09-27T07:37:39.329Z,50.17
2017-09-27T07:40:05.995Z,47.33
2017-09-27T07:42:32.703Z,45.05
2017-09-27T07:44:59.369Z,48.42
2017-09-27T07:47:26.027Z,45.70
2017-09-27T07:49:52.690Z,47.97
2017-09-27T07:52:19.359Z,50.55
2017-09-27T07:54:46.024Z,46.65
2017-09-27T07:57:12.692Z,47.35
2017-09-27T07:59:39.357Z,46.05
2017-09-27T08:02:06.019Z,44.38
2017-09-27T08:04:32.684Z,45.08
2017-09-27T08:06:59.347Z,45.08
2017-09-27T08:09:26.047Z,46.03
2017-09-27T08:11:52.723Z,39.42
2017-09-27T08:14:19.383Z,45.12
2017-09-27T08:16:46.052Z,45.10
2017-09-27T08:19:12.716Z,46.30
2017-09-27T08:21:39.380Z,45.22
2017-09-27T08:24:06.048Z,45.50
2017-09-27T08:26:32.735Z,41.65
2017-09-27T08:28:59.395Z,47.72
2017-09-27T08:31:26.095Z,47.67
2017-09-27T08:33:52.761Z,48.65
2017-09-27T08:36:19.422Z,49.58
2017-09-27T08:38:46.116Z,53.83
2017-09-27T08:41:12.780Z,50.25
2017-09-27T08:43:39.479Z,51.22
2017-09-27T08:46:06.148Z,50.17
2017-09-27T08:48:32.835Z,46.55
2017-09-27T08:50:59.502Z,47.45
2017-09-27T08:53:26.168Z,48.33
2017-09-27T08:55:52.835Z,48.00
2017-09-27T08:58:19.499Z,47.70
2017-09-27T09:00:46.158Z,51.95
2017-09-27T09:03:12.823Z,48.42
2017-09-27T09:05:39.514Z,53.92
2017-09-27T09:08:06.180Z,51.45
2017-09-27T09:10:32.867Z,54.22
2017-09-27T09:12:59.531Z,54.38
2017-09-27T09:15:26.231Z,51.22
2017-09-27T09:17:52.896Z,52.53
2017-09-27T09:20:19.570Z,57.50
2017-09-27T09:22:46.239Z,57.35
2017-09-27T09:25:12.907Z,53.47
2017-09-27T09:27:39.604Z,57.78
2017-09-27T09:30:06.268Z,50.88
2017-09-27T09:32:32.959Z,57.35
2017-09-27T09:34:59.628Z,53.55
2017-09-27T09:37:26.315Z,54.17
2017-09-27T09:39:52.983Z,51.37
2017-09-27T09:42:19.700Z,56.20
2017-09-27T09:44:46.364Z,54.80
2017-09-27T09:47:13.028Z,54.58
2017-09-27T09:49:39.723Z,53.20
2017-09-27T09:52:06.383Z,53.42
2017-09-27T09:54:33.079Z,50.60
2017-09-27T09:56:59.743Z,50.25
2017-09-27T09:59:26.427Z,53.17
2017-09-27T10:01:53.095Z,50.00
2017-09-27T10:04:19.783Z,48.15
2017-09-27T10:06:46.447Z,49.33
2017-09-27T10:09:13.152Z,47.55
2017-09-27T10:11:39.849Z,50.08
2017-09-27T10:14:06.567Z,47.45
2017-09-27T10:16:33.231Z,47.95
2017-09-27T10:18:59.892Z,47.50
2017-09-27T10:21:26.580Z,45.95
2017-09-27T10:23:53.243Z,44.13
2017-09-27T10:26:19.931Z,44.47
2017-09-27T10:28:46.596Z,43.90
2017-09-27T10:31:13.283Z,46.28
2017-09-27T10:33:39.947Z,44.90
2017-09-27T10:36:06.616Z,44.70
2017-09-27T10:38:33.279Z,45.83
2017-09-27T10:40:59.944Z,46.55
2017-09-27T10:43:26.631Z,44.50
2017-09-27T10:45:53.295Z,44.78
2017-09-27T10:48:19.964Z,44.88
2017-09-27T10:50:46.648Z,44.53
2017-09-27T10:53:13.339Z,43.63
2017-09-27T10:55:40.007Z,44.33
2017-09-27T10:58:06.671Z,44.88
2017-09-27T11:00:33.331Z,44.30
2017-09-27T11:02:59.995Z,48.10
2017-09-27T11:05:26.673Z,45.22
2017-09-27T11:07:53.339Z,43.50
2017-09-27T11:10:20.004Z,43.75
2017-09-27T11:12:46.675Z,42.30
2017-09-27T11:15:13.380Z,44.47
2017-09-27T11:17:40.043Z,43.22
2017-09-27T11:20:06.711Z,44.80
2017-09-27T11:22:33.395Z,43.92
2017-09-27T11:25:00.065Z,44.80
2017-09-27T11:27:26.757Z,45.75
2017-09-27T11:29:53.418Z,46.17
2017-09-27T11:32:20.131Z,45.60
2017-09-27T11:34:46.801Z,48.05
2017-09-27T11:37:13.487Z,45.40
2017-09-27T11:39:40.152Z,46.00
2017-09-27T11:42:06.864Z,45.92
2017-09-27T11:44:33.527Z,47.03
2017-09-27T11:47:00.187Z,44.05
2017-09-27T11:49:26.880Z,45.35
2017-09-27T11:51:53.546Z,44.65
2017-09-27T11:54:20.236Z,43.38
2017-09-27T11:56:46.896Z,44.28
2017-09-27T11:59:13.596Z,42.30
2017-09-27T12:01:40.263Z,41.28
2017-09-27T12:04:06.950Z,40.65
2017-09-27T12:06:33.615Z,39.67
2017-09-27T12:09:00.320Z,42.15
2017-09-27T12:11:26.983Z,41.40
2017-09-27T12:13:53.648Z,44.28
2017-09-27T12:16:20.327Z,42.88
2017-09-27T12:18:46.989Z,46.70
2017-09-27T12:21:13.676Z,43.50
2017-09-27T12:23:40.335Z,43.78
2017-09-27T12:26:07.019Z,40.40
2017-09-27T12:28:33.684Z,42.17
2017-09-27T12:31:00.392Z,41.60
2017-09-27T12:33:27.072Z,38.92
2017-09-27T12:35:53.767Z,39.53
2017-09-27T12:38:20.430Z,41.05
2017-09-27T12:40:47.094Z,40.97
2017-09-27T12:43:13.885Z,39.95
2017-09-27T12:45:40.548Z,42.62
2017-09-27T12:48:07.235Z,41.13
2017-09-27T12:50:33.900Z,41.78
2017-09-27T12:53:00.588Z,40.95
2017-09-27T12:55:27.251Z,40.60
2017-09-27T12:57:53.919Z,41.50
2017-09-27T13:00:20.607Z,40.40
2017-09-27T13:02:47.268Z,40.25
2017-09-27T13:05:13.935Z,41.92
2017-09-27T13:07:40.643Z,41.20
2017-09-27T13:10:07.308Z,39.28
2017-09-27T13:12:33.967Z,42.22
2017-09-27T13:15:00.655Z,43.08
2017-09-27T13:17:27.319Z,42.92
2017-09-27T13:19:54.032Z,42.00
2017-09-27T13:22:20.703Z,41.80
2017-09-27T13:24:47.412Z,41.40
2017-09-27T13:27:14.078Z,42.55
2017-09-27T13:29:40.739Z,43.60
2017-09-27T13:32:07.428Z,43.30
2017-09-27T13:34:34.094Z,44.10
2017-09-27T13:37:00.767Z,43.22
2017-09-27T13:39:27.431Z,42.67
2017-09-27T13:41:54.104Z,42.67
2017-09-27T13:44:20.771Z,42.20
2017-09-27T13:46:47.467Z,43.45
2017-09-27T13:49:14.143Z,44.38
2017-09-27T13:51:40.807Z,41.72
2017-09-27T13:54:07.471Z,41.17
2017-09-27T13:56:34.135Z,41.17
2017-09-27T13:59:00.830Z,42.42
2017-09-27T14:01:27.495Z,42.17
2017-09-27T14:03:54.211Z,44.80
2017-09-27T14:06:20.880Z,44.17
2017-09-27T14:08:47.578Z,40.72
2017-09-27T14:11:14.243Z,41.85
2017-09-27T14:13:40.902Z,42.17
2017-09-27T14:16:07.589Z,40.42
2017-09-27T14:18:34.262Z,43.63
2017-09-27T14:21:00.952Z,41.20
2017-09-27T14:23:27.611Z,40.70
2017-09-27T14:25:54.300Z,41.10
2017-09-27T14:28:20.971Z,38.97
2017-09-27T14:30:47.635Z,41.08
2017-09-27T14:33:14.300Z,42.60
2017-09-27T14:35:41.003Z,41.45
2017-09-27T14:38:07.667Z,43.20
2017-09-27T14:40:34.331Z,44.05
2017-09-27T14:43:01.067Z,42.67
2017-09-27T14:45:27.727Z,43.80
2017-09-27T14:47:54.394Z,42.10
2017-09-27T14:50:21.059Z,42.28
2017-09-27T14:52:47.749Z,43.00
2017-09-27T14:55:14.416Z,41.15
2017-09-27T14:57:41.115Z,44.38
2017-09-27T15:00:07.784Z,43.33
2017-09-27T15:02:34.453Z,42.15
2017-09-27T15:05:01.119Z,44.05
2017-09-27T15:07:27.836Z,44.83
2017-09-27T15:09:54.503Z,43.35
2017-09-27T15:12:21.168Z,45.45
2017-09-27T15:14:47.831Z,45.17
2017-09-27T15:17:14.496Z,45.88
2017-09-27T15:19:41.165Z,43.55
2017-09-27T15:22:07.831Z,47.10
2017-09-27T15:24:34.515Z,47.90
2017-09-27T15:27:01.187Z,47.75
2017-09-27T15:29:27.855Z,49.28
2017-09-27T15:31:54.519Z,48.40
2017-09-27T15:34:21.179Z,49.13
2017-09-27T15:36:47.848Z,46.45
2017-09-27T15:39:14.535Z,50.38
2017-09-27T15:41:41.208Z,50.38
2017-09-27T15:44:07.900Z,51.08
2017-09-27T15:46:34.563Z,51.42
2017-09-27T15:49:01.232Z,50.65
2017-09-27T15:51:27.900Z,51.55
2017-09-27T15:53:54.617Z,52.67
2017-09-27T15:56:21.289Z,52.95
2017-09-27T15:58:47.962Z,54.72
2017-09-27T16:01:14.623Z,54.90
2017-09-27T16:03:41.298Z,49.40
2017-09-27T16:06:07.959Z,52.05
2017-09-27T16:08:34.623Z,51.78
2017-09-27T16:11:01.310Z,50.85
2017-09-27T16:13:27.971Z,56.33
2017-09-27T16:15:54.660Z,52.65
2017-09-27T16:18:21.328Z,52.15
2017-09-27T16:20:48.019Z,53.92
2017-09-27T16:23:14.679Z,54.10
2017-09-27T16:25:41.383Z,54.50
2017-09-27T16:28:08.043Z,55.20
2017-09-27T16:30:34.714Z,53.55
2017-09-27T16:33:01.383Z,51.85
2017-09-27T16:35:28.067Z,54.33
2017-09-27T16:37:54.753Z,52.28
2017-09-27T16:40:21.416Z,54.95
2017-09-27T16:42:48.085Z,54.88
2017-09-27T16:45:14.758Z,54.83
2017-09-27T16:47:41.453Z,55.15
2017-09-27T16:50:08.131Z,59.42
2017-09-27T16:52:34.814Z,56.95
2017-09-27T16:55:01.516Z,56.13
2017-09-27T16:57:28.208Z,57.92
2017-09-27T16:59:54.873Z,58.40
2017-09-27T17:02:21.539Z,60.38
2017-09-27T17:04:48.208Z,60.25
2017-09-27T17:07:14.872Z,61.92
2017-09-27T17:09:41.535Z,60.35
2017-09-27T17:12:08.203Z,63.90
2017-09-27T17:14:34.891Z,62.47
2017-09-27T17:17:01.565Z,67.03
2017-09-27T17:19:28.273Z,64.90
2017-09-27T17:21:54.943Z,62.72
2017-09-27T17:24:21.655Z,62.53
2017-09-27T17:26:48.337Z,64.70
2017-09-27T17:29:15.004Z,63.85
2017-09-27T17:31:41.699Z,64.85
2017-09-27T17:34:08.363Z,62.78
2017-09-27T17:36:35.031Z,65.30
2017-09-27T17:39:01.727Z,67.40
2017-09-27T17:41:28.392Z,68.05
2017-09-27T17:43:55.059Z,67.97
2017-09-27T17:46:21.751Z,68.28
2017-09-27T17:48:48.423Z,73.90
2017-09-27T17:51:15.215Z,73.95
2017-09-27T17:53:41.868Z,73.60
2017-09-27T17:56:08.536Z,75.68
2017-09-27T17:58:35.208Z,71.45
2017-09-27T18:01:01.880Z,73.40
2017-09-27T18:03:28.574Z,70.15
2017-09-27T18:06:10.132Z,71.40
2017-09-27T18:08:42.491Z,72.78
2017-09-27T18:11:24.047Z,74.68
2017-09-27T18:13:56.471Z,73.68
2017-09-27T18:16:25.939Z,76.78
2017-09-27T18:18:52.627Z,81.22
2017-09-27T18:21:19.291Z,78.18
2017-09-27T18:23:45.983Z,81.47
2017-09-27T18:26:12.647Z,78.05
2017-09-27T18:28:39.358Z,71.12
2017-09-27T18:31:06.024Z,85.53
2017-09-27T18:33:32.694Z,82.47
2017-09-27T18:35:59.368Z,78.40
2017-09-27T18:38:26.047Z,82.88
2017-09-27T18:40:52.735Z,84.87
2017-09-27T18:43:19.407Z,84.30
2017-09-27T18:45:46.108Z,80.53
2017-09-27T18:48:12.780Z,89.93
2017-09-27T18:50:39.488Z,92.10
2017-09-27T18:53:06.158Z,91.40
2017-09-27T18:55:32.832Z,90.50
2017-09-27T18:57:59.503Z,93.03
2017-09-27T19:00:26.185Z,87.88
2017-09-27T19:02:52.859Z,88.37
2017-09-27T19:05:19.536Z,95.35
2017-09-27T19:07:46.203Z,99.28
2017-09-27T19:10:12.871Z,95.82
2017-09-27T19:12:39.559Z,99.00
2017-09-27T19:15:06.227Z,88.55
2017-09-27T19:17:32.921Z,97.97
2017-09-27T19:19:59.591Z,92.90
2017-09-27T19:22:26.259Z,94.85
2017-09-27T19:24:52.928Z,97.25
2017-09-27T19:27:19.657Z,92.05
2017-09-27T19:29:46.343Z,88.87
2017-09-27T19:32:13.019Z,102.62
2017-09-27T19:34:39.710Z,104.07
2017-09-27T19:37:06.376Z,99.70
2017-09-27T19:39:33.044Z,102.75
2017-09-27T19:41:59.711Z,91.90
2017-09-27T19:44:26.404Z,93.53
2017-09-27T19:46:53.075Z,88.28
2017-09-27T19:49:19.807Z,98.35
2017-09-27T19:51:46.474Z,86.30
2017-09-27T19:54:13.224Z,92.72
2017-09-27T19:56:39.891Z,108.87
2017-09-27T19:59:06.561Z,98.72
2017-09-27T20:01:33.255Z,88.93
2017-09-27T20:03:59.923Z,88.65
2017-09-27T20:06:26.587Z,84.22
2017-09-27T20:08:53.259Z,91.95
2017-09-27T20:11:20.159Z,94.68
2017-09-27T20:13:46.828Z,96.87
2017-09-27T20:16:13.527Z,93.00
2017-09-27T20:18:40.207Z,106.63
2017-09-27T20:21:06.919Z,99.68
2017-09-27T20:23:33.595Z,95.53
2017-09-27T20:26:00.260Z,95.70
2017-09-27T20:28:26.948Z,99.35
2017-09-27T20:30:53.640Z,103.32
2017-09-27T20:33:20.342Z,97.65
2017-09-27T20:35:47.016Z,105.95
2017-09-27T20:38:13.707Z,97.72
2017-09-27T20:40:40.376Z,99.60
2017-09-27T20:43:07.067Z,95.75
2017-09-27T20:45:33.744Z,93.30
2017-09-27T20:48:00.445Z,90.22
2017-09-27T20:50:27.112Z,90.47
2017-09-27T20:52:53.803Z,92.40
2017-09-27T20:55:20.471Z,93.70
2017-09-27T20:57:47.180Z,87.53
2017-09-27T21:00:13.847Z,80.80
2017-09-27T21:02:40.513Z,90.05
2017-09-27T21:05:07.224Z,91.55
2017-09-27T21:07:33.892Z,92.45
2017-09-27T21:10:00.592Z,91.90
2017-09-27T21:12:27.264Z,90.53
2017-09-27T21:14:53.951Z,91.40
2017-09-27T21:17:20.623Z,78.22
2017-09-27T21:19:47.315Z,92.45
2017-09-27T21:22:14.021Z,87.30
2017-09-27T21:24:40.692Z,93.65
2017-09-27T21:27:07.359Z,91.70
2017-09-27T21:29:34.079Z,88.47
2017-09-27T21:32:00.751Z,89.45
2017-09-27T21:34:27.421Z,88.28
2017-09-27T21:36:54.115Z,96.80
2017-09-27T21:39:20.782Z,93.40
2017-09-27T21:41:47.479Z,82.18
2017-09-27T21:44:14.150Z,87.68
2017-09-27T21:46:40.843Z,94.55
2017-09-27T21:49:07.515Z,97.18
2017-09-27T21:51:34.208Z,80.62
2017-09-27T21:54:00.871Z,71.68
2017-09-27T21:56:27.566Z,90.62
2017-09-27T21:58:54.244Z,97.18
2017-09-27T22:01:20.976Z,94.32
2017-09-27T22:03:47.657Z,91.70
2017-09-27T22:06:14.329Z,79.15
2017-09-27T22:08:41.003Z,87.65
2017-09-27T22:11:07.675Z,76.37
2017-09-27T22:13:34.363Z,80.10
2017-09-27T22:16:01.036Z,81.63
2017-09-27T22:18:27.703Z,80.87
2017-09-27T22:20:54.379Z,81.95
2017-09-27T22:23:21.068Z,76.15
2017-09-27T22:25:47.731Z,95.20
2017-09-27T22:28:14.401Z,97.07
2017-09-27T22:30:41.072Z,84.72
2017-09-27T22:33:07.787Z,74.57
2017-09-27T22:35:34.455Z,74.00
2017-09-27T22:38:01.152Z,92.32
2017-09-27T22:40:27.823Z,92.18
2017-09-27T22:42:54.492Z,77.78
2017-09-27T22:45:21.160Z,79.80
2017-09-27T22:47:47.827Z,81.70
2017-09-27T22:50:14.500Z,79.20
2017-09-27T22:52:41.166Z,79.72
2017-09-27T22:55:07.862Z,77.07
2017-09-27T22:57:34.528Z,76.60
2017-09-27T23:00:01.199Z,77.97
2017-09-27T23:02:27.866Z,76.00
2017-09-27T23:04:54.535Z,83.65
2017-09-27T23:07:22.036Z,77.55
2017-09-27T23:09:48.735Z,89.13
2017-09-27T23:12:15.424Z,120.35
2017-09-27T23:14:42.093Z,81.70
2017-09-27T23:17:08.771Z,75.95
2017-09-27T23:19:35.443Z,89.90
2017-09-27T23:22:02.113Z,118.20
2017-09-27T23:24:28.786Z,115.25
2017-09-27T23:26:55.488Z,111.05
2017-09-27T23:29:22.162Z,108.10
2017-09-27T23:31:48.836Z,112.85
2017-09-27T23:34:15.507Z,112.50
2017-09-27T23:36:42.181Z,115.45
2017-09-27T23:39:08.856Z,134.23
2017-09-27T23:41:35.568Z,141.77
2017-09-27T23:44:02.243Z,113.22
2017-09-27T23:46:28.936Z,133.27
2017-09-27T23:48:55.611Z,121.57
2017-09-27T23:51:22.278Z,135.10
2017-09-27T23:53:48.979Z,155.90
2017-09-27T23:56:15.652Z,119.00
2017-09-27T23:58:42.347Z,126.07
